Venus II — FH3587 — position and weather

sailwx.info

Track history (hours):
 
Tides and Currents Weather Stations Pressure Air Temp Water Temp Dewpoint Dewpoint Depression Visibility Wind Speed Wind Dir Waves Ship Positions

Venus II

Last reported at 2017-Sep-19 11:46 UTC. Time now 2017-Sep-20 23:46 UTC.
Position N 48°23' W 004°29'.

Length 10 m.

Type: Fishing. MMSI: 227589520.

Date/timePositionNaut miles runAvg speedWind from/ knotsBaromVisibWave heightAir tempDewpointWater temp
2017-Sep-19 11:46N 48°23' W 004°29'0 0.0
2017-Sep-19 05:02N 48°23' W 004°29'0 0.0
2017-Sep-18 04:47N 48°23' W 004°29'0 0.0
2017-Sep-17 05:06N 48°23' W 004°29'0 0.0
2017-Sep-16 04:57N 48°23' W 004°29'0 0.0
2017-Sep-15 04:31N 48°23' W 004°29'0 5.2
2017-Sep-15 04:30N 48°23' W 004°29'1 0.0
2017-Sep-14 05:06N 48°22' W 004°29'1 6.4
2017-Sep-14 05:00N 48°23' W 004°29'0 0.0
2017-Sep-13 13:48N 48°23' W 004°29'0 0.0
2017-Sep-13 11:18N 48°23' W 004°29'0 0.0
2017-Sep-12 14:01N 48°23' W 004°29'0 0.0
2017-Sep-12 13:58N 48°23' W 004°29'0 0.0
2017-Sep-12 13:28N 48°23' W 004°29'1 3.1
2017-Sep-12 13:01N 48°22' W 004°30'3 5.2
2017-Sep-12 12:30N 48°19' W 004°31'1 2.1
2017-Sep-12 12:00N 48°20' W 004°32'0 0.4
2017-Sep-12 11:30N 48°20' W 004°32'0 0.3
2017-Sep-12 10:46N 48°20' W 004°32'0 0.0
2017-Sep-12 10:30N 48°20' W 004°32'0 0.0
2017-Sep-12 10:00N 48°20' W 004°32'0 0.6
2017-Sep-12 09:30N 48°20' W 004°32'2 4.1
2017-Sep-12 09:00N 48°21' W 004°29'0 1.0
2017-Sep-12 08:30N 48°21' W 004°29'2 3.4
2017-Sep-12 08:00N 48°20' W 004°30'1 2.6
2017-Sep-12 07:30N 48°21' W 004°29'1 2.1
2017-Sep-12 07:00N 48°21' W 004°30'2 3.0
2017-Sep-12 06:30N 48°20' W 004°32'0 0.9
2017-Sep-12 05:59N 48°20' W 004°32'0 0.8
2017-Sep-12 05:23N 48°20' W 004°32'0 0.5
2017-Sep-12 05:00N 48°20' W 004°32'2 4.7
2017-Sep-12 04:30N 48°21' W 004°30'2 0.1
2017-Sep-11 10:45N 48°23' W 004°29'0 0.0
2017-Sep-11 10:30N 48°23' W 004°29'0 0.1
2017-Sep-11 09:58N 48°23' W 004°29'0 0.1
2017-Sep-11 09:30N 48°23' W 004°29'  
Track history (hours):
 
Tides and Currents Weather Stations Pressure Air Temp Water Temp Dewpoint Dewpoint Depression Visibility Wind Speed Wind Dir Waves Ship Positions

Venus II

Last reported at 2017-Sep-19 11:46 UTC. Time now 2017-Sep-20 23:46 UTC.
Position N 48°23' W 004°29'.

Length 10 m.

Type: Fishing. MMSI: 227589520.

Date/timePositionNaut miles runAvg speedWind from/ knotsBaromVisibWave heightAir tempDewpointWater temp
2017-Sep-19 11:46N 48°23' W 004°29'0 0.0
2017-Sep-19 05:02N 48°23' W 004°29'0 0.0
2017-Sep-18 04:47N 48°23' W 004°29'0 0.0
2017-Sep-17 05:06N 48°23' W 004°29'0 0.0
2017-Sep-16 04:57N 48°23' W 004°29'0 0.0
2017-Sep-15 04:31N 48°23' W 004°29'0 5.2
2017-Sep-15 04:30N 48°23' W 004°29'1 0.0
2017-Sep-14 05:06N 48°22' W 004°29'1 6.4
2017-Sep-14 05:00N 48°23' W 004°29'0 0.0
2017-Sep-13 13:48N 48°23' W 004°29'0 0.0
2017-Sep-13 11:18N 48°23' W 004°29'0 0.0
2017-Sep-12 14:01N 48°23' W 004°29'0 0.0
2017-Sep-12 13:58N 48°23' W 004°29'0 0.0
2017-Sep-12 13:28N 48°23' W 004°29'1 3.1
2017-Sep-12 13:01N 48°22' W 004°30'3 5.2
2017-Sep-12 12:30N 48°19' W 004°31'1 2.1
2017-Sep-12 12:00N 48°20' W 004°32'0 0.4
2017-Sep-12 11:30N 48°20' W 004°32'0 0.3
2017-Sep-12 10:46N 48°20' W 004°32'0 0.0
2017-Sep-12 10:30N 48°20' W 004°32'0 0.0
2017-Sep-12 10:00N 48°20' W 004°32'0 0.6
2017-Sep-12 09:30N 48°20' W 004°32'2 4.1
2017-Sep-12 09:00N 48°21' W 004°29'0 1.0
2017-Sep-12 08:30N 48°21' W 004°29'2 3.4
2017-Sep-12 08:00N 48°20' W 004°30'1 2.6
2017-Sep-12 07:30N 48°21' W 004°29'1 2.1
2017-Sep-12 07:00N 48°21' W 004°30'2 3.0
2017-Sep-12 06:30N 48°20' W 004°32'0 0.9
2017-Sep-12 05:59N 48°20' W 004°32'0 0.8
2017-Sep-12 05:23N 48°20' W 004°32'0 0.5
2017-Sep-12 05:00N 48°20' W 004°32'2 4.7
2017-Sep-12 04:30N 48°21' W 004°30'2 0.1
2017-Sep-11 10:45N 48°23' W 004°29'0 0.0
2017-Sep-11 10:30N 48°23' W 004°29'0 0.1
2017-Sep-11 09:58N 48°23' W 004°29'0 0.1
2017-Sep-11 09:30N 48°23' W 004°29'  

Dump ship's entire track history